Time;durP1;ratioP1;P1;durP2;ratioP2;P2;SDS_P1;SDS_P2;PMS_P1;PMS_P2;Temp;Humidity;BMP_temperature;BMP_pressure;BME280_temperature;BME280_humidity;BME280_pressure;Samples;Min_cycle;Max_cycle;Signal;HPM_P1;HPM_P2
2021/11/01 00:00:21;;;;;;;33.47;15.68;;;3.80;99.90;;;;;;5032269;28;20275;-76
2021/11/01 00:02:48;;;;;;;27.33;16.17;;;3.80;99.90;;;;;;5028791;28;20233;-77
2021/11/01 00:05:15;;;;;;;27.55;16.17;;;3.70;99.90;;;;;;5028966;28;20173;-77
2021/11/01 00:07:42;;;;;;;29.17;15.35;;;3.70;99.90;;;;;;5030280;28;20166;-76
2021/11/01 00:10:11;;;;;;;27.95;15.70;;;3.70;99.90;;;;;;5030025;28;20194;-77
2021/11/01 00:12:37;;;;;;;29.75;16.25;;;3.60;99.90;;;;;;5028770;28;20174;-76
2021/11/01 00:15:04;;;;;;;25.92;13.63;;;3.60;99.90;;;;;;5030175;28;20219;-77
2021/11/01 00:17:30;;;;;;;22.33;13.75;;;3.60;99.90;;;;;;5028710;28;20204;-77
2021/11/01 00:19:56;;;;;;;36.20;15.57;;;3.60;99.90;;;;;;5028616;28;20193;-76
2021/11/01 00:22:23;;;;;;;24.48;13.90;;;3.60;99.90;;;;;;5028591;28;20165;-76
2021/11/01 00:24:50;;;;;;;30.70;14.00;;;3.60;99.90;;;;;;5028665;28;20193;-76
2021/11/01 00:27:16;;;;;;;44.03;16.00;;;3.50;99.90;;;;;;5028552;28;20202;-76
2021/11/01 00:29:44;;;;;;;31.23;17.08;;;3.60;99.90;;;;;;5029694;28;20189;-77
2021/11/01 00:32:11;;;;;;;35.03;14.48;;;3.50;99.90;;;;;;5029655;28;20617;-77
2021/11/01 00:34:37;;;;;;;27.98;14.55;;;3.50;99.90;;;;;;5028565;28;20197;-78
2021/11/01 00:37:04;;;;;;;29.25;15.82;;;3.50;99.90;;;;;;5029688;28;20208;-78
2021/11/01 00:39:30;;;;;;;24.13;13.20;;;3.50;99.90;;;;;;5029530;28;20190;-78
2021/11/01 00:41:56;;;;;;;24.15;14.30;;;3.50;99.90;;;;;;5029488;28;20176;-77
2021/11/01 00:44:22;;;;;;;32.72;14.50;;;3.50;99.90;;;;;;5028201;28;20174;-78
2021/11/01 00:46:48;;;;;;;27.23;13.68;;;3.50;99.90;;;;;;5029508;28;20174;-78
2021/11/01 00:49:14;;;;;;;27.58;13.82;;;3.50;99.90;;;;;;5029462;28;20166;-78
2021/11/01 00:51:42;;;;;;;30.55;14.57;;;3.50;99.90;;;;;;5029346;28;20205;-77
2021/11/01 00:54:09;;;;;;;24.23;13.82;;;3.50;99.90;;;;;;5028182;28;20177;-78
2021/11/01 00:56:36;;;;;;;28.70;14.95;;;3.40;99.90;;;;;;5028087;28;20173;-78
2021/11/01 00:59:02;;;;;;;28.92;13.43;;;3.30;99.90;;;;;;5029373;28;20147;-77
2021/11/01 01:01:32;;;;;;;29.20;14.30;;;3.30;99.90;;;;;;5030836;28;20217;-78
2021/11/01 01:03:58;;;;;;;35.45;14.98;;;3.30;99.90;;;;;;5049150;28;20184;-77
2021/11/01 01:06:25;;;;;;;24.45;13.57;;;3.20;99.90;;;;;;5030819;28;20183;-77
2021/11/01 01:08:52;;;;;;;25.05;14.32;;;3.10;99.90;;;;;;5031315;28;20200;-77
2021/11/01 01:11:18;;;;;;;26.27;14.27;;;3.10;99.90;;;;;;5048822;28;20258;-78
2021/11/01 01:13:44;;;;;;;25.63;14.40;;;3.10;99.90;;;;;;5031248;28;20200;-77
2021/11/01 01:18:43;;;;;;;28.13;14.80;;;3.10;99.90;;;;;;5048989;28;20169;-77
2021/11/01 01:24:00;;;;;;;33.25;14.82;;;3.00;99.90;;;;;;5029475;28;20209;-77
2021/11/01 01:26:26;;;;;;;31.98;13.60;;;3.00;99.90;;;;;;5048951;28;20176;-75
2021/11/01 01:28:53;;;;;;;25.73;14.05;;;3.10;99.90;;;;;;5048959;28;20161;-76
2021/11/01 01:31:20;;;;;;;24.50;13.85;;;3.10;99.90;;;;;;5048738;28;20223;-77
2021/11/01 01:33:47;;;;;;;24.67;13.52;;;3.10;99.90;;;;;;5048654;28;20180;-77
2021/11/01 01:36:13;;;;;;;29.17;14.02;;;3.10;99.90;;;;;;5048843;28;20156;-78
2021/11/01 01:38:40;;;;;;;27.80;13.68;;;3.10;99.90;;;;;;5048805;28;20161;-75
2021/11/01 01:41:25;;;;;;;27.15;15.77;;;3.10;99.90;;;;;;5048693;28;20197;-76
2021/11/01 01:43:57;;;;;;;25.10;14.30;;;3.10;99.90;;;;;;5048829;28;20170;-75
2021/11/01 01:46:24;;;;;;;25.83;13.88;;;3.10;99.90;;;;;;5048565;28;20173;-76
2021/11/01 01:48:54;;;;;;;21.83;13.77;;;3.10;99.90;;;;;;5048715;28;20192;-76
2021/11/01 01:51:21;;;;;;;33.97;15.45;;;3.00;99.90;;;;;;5047691;28;20205;-75
2021/11/01 01:53:50;;;;;;;32.65;15.23;;;3.00;99.90;;;;;;5048713;28;20607;-75
2021/11/01 01:56:16;;;;;;;21.42;12.73;;;2.80;99.90;;;;;;5048729;28;20153;-78
2021/11/01 01:58:50;;;;;;;29.48;15.25;;;2.80;99.90;;;;;;5048231;28;20161;-78
2021/11/01 02:01:16;;;;;;;22.88;12.50;;;2.70;99.90;;;;;;5030331;28;20232;-78
2021/11/01 02:03:50;;;;;;;27.52;13.63;;;2.70;99.90;;;;;;5048500;28;20166;-78
2021/11/01 02:06:35;;;;;;;27.23;14.32;;;2.70;99.90;;;;;;5048534;28;20176;-79
2021/11/01 02:09:21;;;;;;;35.22;14.35;;;2.70;99.90;;;;;;5030677;28;20177;-80
2021/11/01 02:11:59;;;;;;;26.10;15.63;;;2.70;99.90;;;;;;5048295;28;20189;-79
2021/11/01 02:14:31;;;;;;;29.52;17.00;;;2.70;99.90;;;;;;5048418;28;20154;-78
2021/11/01 02:17:00;;;;;;;26.45;15.90;;;2.70;99.90;;;;;;5030672;28;20193;-79
2021/11/01 02:19:30;;;;;;;28.85;16.98;;;2.60;99.90;;;;;;5032765;28;20176;-79
2021/11/01 02:22:00;;;;;;;36.13;18.45;;;2.60;99.90;;;;;;5034171;28;20276;-79
2021/11/01 02:24:33;;;;;;;30.65;17.75;;;2.50;99.90;;;;;;5051910;28;20173;-79
2021/11/01 02:27:00;;;;;;;34.88;19.00;;;2.50;99.90;;;;;;5034048;28;20203;-79
2021/11/01 02:29:29;;;;;;;33.53;17.38;;;2.40;99.90;;;;;;5033970;28;20552;-79
2021/11/01 02:31:55;;;;;;;34.30;19.02;;;2.30;99.90;;;;;;5051839;28;20201;-78
2021/11/01 02:34:21;;;;;;;32.35;20.55;;;2.30;99.90;;;;;;5033934;28;20169;-79
2021/11/01 02:36:47;;;;;;;29.75;18.17;;;2.30;99.90;;;;;;5051661;28;20164;-79
2021/11/01 02:39:13;;;;;;;35.55;19.90;;;2.30;99.90;;;;;;5033678;28;20241;-79
2021/11/01 02:41:41;;;;;;;35.50;19.90;;;2.30;99.90;;;;;;5033695;28;20200;-76
2021/11/01 02:44:09;;;;;;;40.88;20.20;;;2.30;99.90;;;;;;5033851;28;20173;-77
2021/11/01 02:46:37;;;;;;;35.08;19.33;;;2.30;99.90;;;;;;5051494;28;20168;-78
2021/11/01 02:49:03;;;;;;;31.52;19.20;;;2.30;99.90;;;;;;5033670;28;20177;-75
2021/11/01 02:51:31;;;;;;;30.70;19.63;;;2.20;99.90;;;;;;5051258;28;20292;-76
2021/11/01 02:53:59;;;;;;;33.50;18.80;;;2.20;99.90;;;;;;5051357;28;20154;-76
2021/11/01 02:56:26;;;;;;;36.65;18.67;;;2.20;99.90;;;;;;5051359;28;20615;-75
2021/11/01 02:58:54;;;;;;;34.78;19.10;;;2.10;99.90;;;;;;5051317;28;20150;-75
2021/11/01 03:01:22;;;;;;;34.78;19.95;;;2.10;99.90;;;;;;5050966;28;20257;-76
2021/11/01 03:03:48;;;;;;;32.40;18.50;;;2.10;99.90;;;;;;5051246;28;20188;-77
2021/11/01 03:06:20;;;;;;;31.33;19.17;;;2.00;99.90;;;;;;5051173;28;20162;-76
2021/11/01 03:08:48;;;;;;;36.33;18.92;;;2.00;99.90;;;;;;5033202;28;20211;-75
2021/11/01 03:11:14;;;;;;;35.90;18.88;;;2.00;99.90;;;;;;5050941;28;20201;-76
2021/11/01 03:13:41;;;;;;;27.27;16.10;;;2.00;99.90;;;;;;5051050;28;20158;-76
2021/11/01 03:16:08;;;;;;;35.88;20.48;;;1.90;99.90;;;;;;5032973;28;20173;-77
2021/11/01 03:18:58;;;;;;;32.55;18.38;;;1.80;99.90;;;;;;5051052;28;20178;-77
2021/11/01 03:21:26;;;;;;;34.50;19.45;;;1.80;99.90;;;;;;5032940;28;20301;-79
2021/11/01 03:23:53;;;;;;;31.42;17.45;;;1.90;99.90;;;;;;5050809;28;20161;-78
2021/11/01 03:26:21;;;;;;;28.17;16.27;;;1.90;99.90;;;;;;5050847;28;20225;-78
2021/11/01 03:28:54;;;;;;;26.75;16.63;;;1.80;99.90;;;;;;5032607;28;20173;-78
2021/11/01 03:31:26;;;;;;;37.67;19.48;;;1.60;99.90;;;;;;5032667;28;20212;-79
2021/11/01 03:33:53;;;;;;;33.47;18.60;;;1.70;99.90;;;;;;5032831;28;20177;-77
2021/11/01 03:36:21;;;;;;;25.65;16.92;;;1.60;99.90;;;;;;5050759;28;20154;-77
2021/11/01 03:38:48;;;;;;;26.95;15.00;;;1.60;99.90;;;;;;5032702;28;20177;-77
2021/11/01 03:41:16;;;;;;;30.45;16.10;;;1.50;99.90;;;;;;5050344;28;20189;-78
2021/11/01 03:44:01;;;;;;;32.22;16.98;;;1.50;99.90;;;;;;5050379;28;20187;-78
2021/11/01 03:46:41;;;;;;;29.10;15.88;;;1.60;99.90;;;;;;5032903;28;20181;-78
2021/11/01 03:49:12;;;;;;;28.17;15.20;;;1.70;99.90;;;;;;5050297;28;20216;-78
2021/11/01 03:54:07;;;;;;;31.08;14.45;;;1.70;99.90;;;;;;5050405;28;20253;-79
2021/11/01 03:56:35;;;;;;;28.90;15.35;;;1.70;99.90;;;;;;5050225;28;20161;-78
2021/11/01 03:59:02;;;;;;;28.63;15.30;;;1.70;99.90;;;;;;5032331;28;20173;-79
2021/11/01 04:01:28;;;;;;;44.45;15.43;;;1.60;99.90;;;;;;5049672;28;20237;-78
2021/11/01 04:03:55;;;;;;;28.50;14.27;;;1.70;99.90;;;;;;5050082;28;20165;-77
2021/11/01 04:06:22;;;;;;;26.00;15.02;;;1.80;99.90;;;;;;5032219;28;20185;-78
2021/11/01 04:08:50;;;;;;;29.00;14.45;;;1.80;99.90;;;;;;5032126;28;20197;-78
2021/11/01 04:11:17;;;;;;;29.27;13.77;;;2.00;99.90;;;;;;5049716;28;20250;-79
2021/11/01 04:13:43;;;;;;;30.35;16.25;;;2.10;99.90;;;;;;5031941;28;20180;-80
2021/11/01 04:16:12;;;;;;;24.80;14.02;;;2.10;99.90;;;;;;5049910;28;20157;-80
2021/11/01 04:21:19;;;;;;;29.88;14.80;;;2.20;99.90;;;;;;5049843;28;20600;-79
2021/11/01 04:23:46;;;;;;;29.17;14.02;;;2.40;99.90;;;;;;5031819;28;20204;-79
2021/11/01 04:26:15;;;;;;;42.50;14.98;;;2.30;99.90;;;;;;5049570;28;20180;-78
2021/11/01 04:28:41;;;;;;;38.97;14.00;;;2.30;99.90;;;;;;5049672;28;20161;-78
2021/11/01 04:31:10;;;;;;;29.77;13.50;;;2.40;99.90;;;;;;5031695;28;20239;-76
2021/11/01 04:33:37;;;;;;;30.75;16.15;;;2.40;99.90;;;;;;5049590;28;20165;-76
2021/11/01 04:36:03;;;;;;;26.02;13.85;;;2.50;99.90;;;;;;5049612;28;20146;-76
2021/11/01 04:55:00;;;;;;;43.78;14.20;;;2.50;99.90;;;;;;5032069;28;20188;-76
2021/11/01 04:57:26;;;;;;;36.47;14.27;;;2.60;99.90;;;;;;5049252;28;20173;-77
2021/11/01 04:59:53;;;;;;;33.17;15.82;;;2.60;99.90;;;;;;5031294;28;20219;-77
2021/11/01 05:02:20;;;;;;;57.60;16.90;;;2.60;99.90;;;;;;5048851;28;20235;-79
2021/11/01 05:04:48;;;;;;;37.53;15.00;;;2.60;99.90;;;;;;5049074;28;20691;-79
2021/11/01 05:07:15;;;;;;;37.95;16.30;;;2.70;99.90;;;;;;5049036;28;20173;-80
2021/11/01 05:15:02;;;;;;;32.75;15.23;;;2.60;99.90;;;;;;5049102;28;20185;-77
2021/11/01 05:17:36;;;;;;;32.05;15.88;;;2.60;99.90;;;;;;5048978;28;20221;-76
2021/11/01 05:20:13;;;;;;;58.83;18.65;;;2.60;99.90;;;;;;5048846;28;20196;-76
2021/11/01 05:25:31;;;;;;;34.30;13.75;;;2.60;99.90;;;;;;5049056;28;20165;-80
2021/11/01 05:28:10;;;;;;;56.67;15.35;;;2.70;99.90;;;;;;5031152;28;20173;-80
2021/11/01 05:30:40;;;;;;;37.63;14.57;;;2.60;99.90;;;;;;5048718;28;20246;-80
2021/11/01 05:35:39;;;;;;;50.30;15.18;;;2.70;99.90;;;;;;5048974;28;20208;-80
2021/11/01 05:38:06;;;;;;;34.47;14.55;;;2.70;99.90;;;;;;5031056;28;20165;-79
2021/11/01 05:40:34;;;;;;;26.80;13.65;;;2.70;99.90;;;;;;5048746;28;20204;-79
2021/11/01 05:43:02;;;;;;;26.77;14.02;;;2.60;99.90;;;;;;5048878;28;20181;-78
2021/11/01 05:45:28;;;;;;;29.65;14.52;;;2.70;99.90;;;;;;5048796;28;20188;-78
2021/11/01 05:48:02;;;;;;;31.10;15.05;;;2.70;99.90;;;;;;5048647;28;20573;-79
2021/11/01 05:50:31;;;;;;;33.72;17.52;;;2.70;99.90;;;;;;5030751;28;20212;-79
2021/11/01 05:53:02;;;;;;;46.03;15.57;;;2.60;99.90;;;;;;5050183;28;20158;-79
2021/11/01 05:55:40;;;;;;;29.45;15.27;;;2.60;99.90;;;;;;5034543;28;20181;-79
2021/11/01 05:58:11;;;;;;;31.25;15.00;;;2.60;99.90;;;;;;5052298;28;20169;-78
2021/11/01 06:03:18;;;;;;;25.55;13.73;;;2.90;99.90;;;;;;5052354;28;20271;-77
2021/11/01 06:06:15;;;;;;;39.03;16.80;;;2.80;99.90;;;;;;5051699;28;20244;-77
2021/11/01 06:13:55;;;;;;;53.40;15.05;;;2.90;99.90;;;;;;5052166;28;20154;-78
2021/11/01 06:16:22;;;;;;;42.70;16.08;;;3.00;99.90;;;;;;5050861;28;20170;-77
2021/11/01 06:18:49;;;;;;;27.27;15.52;;;2.90;99.90;;;;;;5050929;28;20256;-77
2021/11/01 06:21:17;;;;;;;30.50;15.13;;;2.90;99.90;;;;;;5050706;28;20219;-77
2021/11/01 06:23:46;;;;;;;31.20;13.13;;;2.90;99.90;;;;;;5052091;28;20162;-77
2021/11/01 06:26:17;;;;;;;35.67;16.50;;;3.00;99.90;;;;;;5052008;28;20154;-79
2021/11/01 06:28:44;;;;;;;29.95;14.55;;;3.00;99.90;;;;;;5050688;28;20173;-79
2021/11/01 06:31:14;;;;;;;25.23;14.18;;;3.00;99.90;;;;;;5051647;28;20197;-78
2021/11/01 06:39:23;;;;;;;28.98;15.30;;;3.40;99.90;;;;;;5050720;28;20160;-77
2021/11/01 06:44:48;;;;;;;34.13;16.27;;;3.50;99.90;;;;;;5048856;28;20288;-77
2021/11/01 06:49:56;;;;;;;46.58;17.10;;;3.70;99.90;;;;;;5051359;28;20549;-78
2021/11/01 06:55:08;;;;;;;33.47;15.57;;;3.80;99.90;;;;;;5037002;28;20276;-78
2021/11/01 07:16:51;;;;;;;32.90;16.00;;;4.60;99.90;;;;;;5051139;28;20162;-77
2021/11/01 08:38:42;;;;;;;14.07;9.40;;;16.60;99.90;;;;;;5049528;28;20534;-78
2021/11/01 08:49:25;;;;;;;16.25;9.73;;;18.00;99.90;;;;;;5049368;28;20157;-78
2021/11/01 09:01:25;;;;;;;14.68;9.65;;;18.90;99.90;;;;;;5049224;28;20271;-76
2021/11/01 09:06:04;;;;;;;16.73;10.57;;;19.50;99.90;;;;;;5048879;28;20171;-76
2021/11/01 09:24:38;;;;;;;16.25;11.63;;;19.60;99.90;;;;;;5049009;28;20326;-78
2021/11/01 09:27:13;;;;;;;15.02;10.57;;;20.00;99.90;;;;;;5048822;28;20252;-78
2021/11/01 09:43:06;;;;;;;14.75;10.52;;;19.10;99.90;;;;;;5052397;28;20183;-77
2021/11/01 09:45:35;;;;;;;12.88;10.38;;;19.90;99.90;;;;;;5034101;28;20172;-77
2021/11/01 09:48:03;;;;;;;12.95;9.57;;;20.70;99.90;;;;;;5052338;28;20240;-77
2021/11/01 09:50:30;;;;;;;13.00;9.73;;;21.40;99.70;;;;;;5034350;28;20572;-77
2021/11/01 09:53:00;;;;;;;14.98;10.65;;;21.40;98.40;;;;;;5034283;28;20165;-77
2021/11/01 10:01:01;;;;;;;14.18;10.38;;;18.40;99.90;;;;;;5052301;28;20164;-76
2021/11/01 10:03:36;;;;;;;18.77;11.20;;;18.20;99.90;;;;;;5051672;28;20605;-76
2021/11/01 10:06:04;;;;;;;15.77;10.57;;;19.00;99.90;;;;;;5051858;28;20225;-76
2021/11/01 10:08:31;;;;;;;13.82;8.98;;;18.60;99.90;;;;;;5033947;28;20176;-76
2021/11/01 10:10:58;;;;;;;15.48;9.82;;;18.40;99.90;;;;;;5051803;28;20218;-76
2021/11/01 10:13:30;;;;;;;12.45;9.35;;;18.70;99.90;;;;;;5051895;28;20244;-77
2021/11/01 10:18:47;;;;;;;12.50;8.50;;;19.50;99.90;;;;;;5051742;28;20183;-76
2021/11/01 10:21:16;;;;;;;10.82;7.95;;;20.50;99.90;;;;;;5033631;28;20192;-76
2021/11/01 10:23:55;;;;;;;10.98;8.50;;;20.70;99.40;;;;;;5051550;28;20179;-76
2021/11/01 10:26:29;;;;;;;11.60;8.60;;;20.70;99.60;;;;;;5033413;28;20196;-76
2021/11/01 10:29:05;;;;;;;11.15;7.93;;;19.20;99.90;;;;;;5050388;28;20531;-75
2021/11/01 10:31:43;;;;;;;11.75;8.35;;;17.80;99.90;;;;;;5051555;28;20204;-76
2021/11/01 10:34:11;;;;;;;10.77;9.07;;;17.20;99.90;;;;;;5033454;28;20192;-75
2021/11/01 10:36:39;;;;;;;11.85;9.20;;;17.70;99.90;;;;;;5033489;28;20176;-76
2021/11/01 10:39:15;;;;;;;9.93;7.72;;;19.20;99.90;;;;;;5050056;28;20204;-76
2021/11/01 10:42:10;;;;;;;10.35;8.15;;;18.90;99.90;;;;;;5051392;28;20640;-76
2021/11/01 11:10:47;;;;;;;8.85;6.68;;;18.40;99.90;;;;;;5050539;28;20195;-76
2021/11/01 11:12:29;;;;;;;10.10;7.22;;;18.30;99.90;;;;;;5051031;28;20195;-76
2021/11/01 11:14:59;;;;;;;9.25;6.50;;;16.50;99.90;;;;;;5050961;28;20173;-76
2021/11/01 11:26:17;;;;;;;10.77;6.38;;;18.90;99.90;;;;;;5030648;28;20204;-75
2021/11/01 11:48:45;;;;;;;8.48;6.07;;;19.50;99.90;;;;;;5049986;28;20203;-75
2021/11/01 11:51:11;;;;;;;7.45;5.63;;;19.70;99.10;;;;;;5031512;28;20267;-75
2021/11/01 11:53:59;;;;;;;8.38;6.63;;;20.10;99.50;;;;;;5031940;28;20195;-75
2021/11/01 11:56:31;;;;;;;8.73;6.10;;;21.20;99.30;;;;;;5032032;28;20195;-75
2021/11/01 11:59:02;;;;;;;6.57;5.75;;;21.40;97.70;;;;;;5031541;28;20196;-75
2021/11/01 12:01:36;;;;;;;6.15;5.22;;;20.80;98.60;;;;;;5049661;28;20180;-75
2021/11/01 12:04:05;;;;;;;6.85;5.68;;;20.20;99.80;;;;;;5032042;28;20177;-75
2021/11/01 12:06:46;;;;;;;7.47;5.40;;;20.10;99.90;;;;;;5049893;28;20157;-76
2021/11/01 12:09:19;;;;;;;6.55;5.13;;;20.90;99.00;;;;;;5049614;28;20193;-75
2021/11/01 12:14:42;;;;;;;8.40;6.00;;;19.30;99.90;;;;;;5049683;28;20236;-75
2021/11/01 12:17:11;;;;;;;6.50;5.13;;;18.50;99.90;;;;;;5049415;28;20167;-75
2021/11/01 12:19:38;;;;;;;9.15;5.50;;;17.90;99.90;;;;;;5049347;28;20189;-75
2021/11/01 12:22:08;;;;;;;7.88;5.72;;;17.30;99.90;;;;;;5031195;28;20208;-75
2021/11/01 12:24:34;;;;;;;9.55;6.18;;;17.00;99.90;;;;;;5031416;28;20169;-75
2021/11/01 12:27:04;;;;;;;8.82;5.72;;;17.00;99.90;;;;;;5049002;28;20166;-75
2021/11/01 12:29:31;;;;;;;7.50;4.95;;;16.50;99.90;;;;;;5049152;28;20165;-74
2021/11/01 12:32:04;;;;;;;6.72;4.68;;;16.50;99.90;;;;;;5049100;28;20201;-75
2021/11/01 12:34:30;;;;;;;8.50;5.63;;;16.70;99.90;;;;;;5049242;28;20157;-75
2021/11/01 12:37:08;;;;;;;7.22;5.07;;;16.60;99.90;;;;;;5048980;28;20233;-75
2021/11/01 12:39:40;;;;;;;8.55;5.07;;;16.80;99.90;;;;;;5031154;28;20176;-75
2021/11/01 12:58:42;;;;;;;6.28;4.30;;;16.90;99.90;;;;;;5048913;28;20215;-75
2021/11/01 13:01:11;;;;;;;6.90;4.80;;;16.80;99.90;;;;;;5048829;28;20169;-75
2021/11/01 13:03:39;;;;;;;6.53;4.63;;;16.50;99.90;;;;;;5030665;28;20270;-75
2021/11/01 13:06:12;;;;;;;8.27;5.10;;;16.50;99.90;;;;;;5031023;28;20204;-75
2021/11/01 13:08:48;;;;;;;6.22;4.10;;;16.50;99.90;;;;;;5030844;28;20196;-75
2021/11/01 13:11:28;;;;;;;5.97;4.13;;;16.70;99.90;;;;;;5030941;28;20220;-75
2021/11/01 13:19:20;;;;;;;4.50;3.67;;;16.80;99.90;;;;;;5048896;28;20180;-75
2021/11/01 13:22:12;;;;;;;6.45;4.03;;;16.60;99.90;;;;;;5030931;28;20539;-75
2021/11/01 13:25:04;;;;;;;5.28;3.90;;;16.20;99.90;;;;;;5031206;28;20229;-75
2021/11/01 13:38:52;;;;;;;4.88;3.75;;;16.20;99.90;;;;;;5048673;28;20193;-74
2021/11/01 13:41:27;;;;;;;6.80;3.78;;;16.40;99.90;;;;;;5048512;28;20168;-75
2021/11/01 13:44:14;;;;;;;4.75;3.78;;;16.30;99.90;;;;;;5048656;28;20164;-75
2021/11/01 13:47:02;;;;;;;7.25;4.35;;;16.20;99.90;;;;;;5048329;28;20208;-75
2021/11/01 13:49:32;;;;;;;5.57;3.85;;;16.30;99.90;;;;;;5030807;28;20638;-75
2021/11/01 13:55:05;;;;;;;8.40;4.30;;;16.00;99.90;;;;;;5048736;28;20158;-75
2021/11/01 13:57:38;;;;;;;6.47;3.75;;;16.10;99.90;;;;;;5048369;28;20184;-75
2021/11/01 14:00:35;;;;;;;5.15;3.78;;;16.20;99.90;;;;;;5030693;28;20168;-75
2021/11/01 14:03:08;;;;;;;4.35;3.50;;;16.30;99.90;;;;;;5047761;28;20255;-75
2021/11/01 14:16:22;;;;;;;5.15;3.90;;;15.60;99.90;;;;;;4990826;28;20194;-75
2021/11/01 14:19:17;;;;;;;5.60;4.10;;;15.60;99.90;;;;;;4990760;28;20234;-75
2021/11/01 14:36:08;;;;;;;4.97;3.70;;;16.00;99.90;;;;;;4951392;29;20171;-78
2021/11/01 15:16:04;;;;;;;6.50;4.80;;;14.90;99.90;;;;;;5051117;28;20180;-75
2021/11/01 15:18:44;;;;;;;8.00;5.72;;;14.80;99.90;;;;;;5050838;28;20661;-76
2021/11/01 15:35:05;;;;;;;7.32;5.38;;;14.30;99.90;;;;;;4951076;29;20161;-76
2021/11/01 16:15:18;;;;;;;9.57;6.50;;;14.20;99.90;;;;;;4950679;29;20184;-75
2021/11/01 16:18:36;;;;;;;8.85;6.07;;;13.60;99.90;;;;;;5049875;28;20220;-76
2021/11/01 16:21:02;;;;;;;12.98;6.68;;;13.60;99.90;;;;;;5049744;28;20646;-76
2021/11/01 16:23:35;;;;;;;10.55;6.03;;;13.70;99.90;;;;;;5049703;28;20169;-76
2021/11/01 16:26:21;;;;;;;8.98;6.60;;;13.70;99.90;;;;;;5049678;28;20183;-76
2021/11/01 16:28:50;;;;;;;10.73;6.28;;;13.70;99.90;;;;;;5031628;28;20207;-76
2021/11/01 16:31:30;;;;;;;10.57;6.45;;;13.60;99.90;;;;;;5049368;28;20252;-76
2021/11/01 16:34:07;;;;;;;9.25;6.30;;;13.60;99.90;;;;;;5045112;28;20173;-76
2021/11/01 16:39:07;;;;;;;9.27;6.18;;;13.60;99.90;;;;;;5048550;28;20208;-77
2021/11/01 16:41:35;;;;;;;10.48;6.72;;;13.50;99.90;;;;;;5031511;28;20176;-76
2021/11/01 16:44:14;;;;;;;9.68;6.78;;;13.60;99.90;;;;;;5049098;28;20255;-76
2021/11/01 16:46:45;;;;;;;9.60;6.95;;;13.60;99.90;;;;;;5031358;28;20164;-77
2021/11/01 16:49:12;;;;;;;12.02;6.03;;;13.60;99.90;;;;;;5030757;28;20201;-77
2021/11/01 16:51:40;;;;;;;8.45;6.03;;;13.70;99.90;;;;;;5030740;28;20219;-77
2021/11/01 16:54:08;;;;;;;7.50;5.97;;;13.60;99.90;;;;;;5047654;28;20254;-76
2021/11/01 17:02:46;;;;;;;10.27;7.05;;;13.40;99.90;;;;;;5048221;28;20221;-76
2021/11/01 17:04:57;;;;;;;8.93;6.75;;;13.40;99.90;;;;;;5040388;28;20189;-77
2021/11/01 17:26:55;;;;;;;11.35;6.82;;;12.60;99.90;;;;;;5048816;28;20217;-76
2021/11/01 17:37:36;;;;;;;11.27;6.82;;;12.30;99.90;;;;;;5048737;28;20197;-76
2021/11/01 18:41:22;;;;;;;13.13;8.93;;;11.60;99.90;;;;;;5050422;28;20723;-76
2021/11/01 18:52:07;;;;;;;14.82;9.38;;;11.50;99.90;;;;;;5031462;28;20288;-74
2021/11/01 18:54:41;;;;;;;16.52;9.52;;;11.50;99.90;;;;;;5031350;28;20181;-74
2021/11/01 18:57:11;;;;;;;16.70;9.50;;;11.50;99.90;;;;;;5031437;28;20153;-74
2021/11/01 18:59:40;;;;;;;12.75;9.07;;;11.50;99.90;;;;;;5012410;28;20205;-74
2021/11/01 19:04:51;;;;;;;14.27;8.95;;;11.50;99.90;;;;;;5031393;28;20173;-75
2021/11/01 20:05:27;;;;;;;19.00;10.25;;;11.30;99.90;;;;;;5031057;28;20544;-76
2021/11/01 21:25:51;;;;;;;4.57;1.45;;;11.00;99.90;;;;;;5055543;28;20187;-75
2021/11/01 21:28:17;;;;;;;0.50;0.50;;;11.00;99.90;;;;;;5036453;28;20201;-75
2021/11/01 21:30:44;;;;;;;0.28;0.28;;;11.10;99.90;;;;;;5035663;28;20204;-75
2021/11/01 21:33:14;;;;;;;1.42;1.08;;;11.10;99.90;;;;;;5034435;28;20185;-75
2021/11/01 21:35:45;;;;;;;0.55;0.55;;;11.10;99.90;;;;;;5035956;28;20165;-75
2021/11/01 21:38:12;;;;;;;0.50;0.50;;;11.10;99.90;;;;;;5036064;28;20177;-76
2021/11/01 21:40:40;;;;;;;2.33;2.20;;;11.00;99.90;;;;;;5029444;28;20215;-75
2021/11/01 21:43:06;;;;;;;0.65;0.63;;;11.00;99.90;;;;;;5032317;28;20563;-75
2021/11/01 21:45:32;;;;;;;2.05;1.95;;;11.00;99.90;;;;;;5048992;28;20348;-76
2021/11/01 21:47:57;;;;;;;0.90;0.90;;;11.00;99.90;;;;;;5053063;28;20180;-76
2021/11/01 21:50:23;;;;;;;2.85;2.63;;;10.90;99.90;;;;;;5054715;28;20193;-77
2021/11/01 21:52:50;;;;;;;4.10;3.35;;;10.80;99.90;;;;;;5049651;28;20223;-76
2021/11/01 21:55:19;;;;;;;1.35;1.25;;;10.80;99.90;;;;;;5036933;28;20724;-77
2021/11/01 21:57:48;;;;;;;0.40;0.40;;;10.80;99.90;;;;;;5055307;28;20299;-76
2021/11/01 22:22:36;;;;;;;0.52;0.52;;;10.80;99.90;;;;;;4989588;28;20179;-75
2021/11/01 22:58:39;;;;;;;1.95;0.77;;;10.60;99.90;;;;;;5030632;28;20181;-78
2021/11/01 23:01:11;;;;;;;1.63;1.52;;;10.60;99.90;;;;;;5037591;28;20205;-78
2021/11/01 23:33:33;;;;;;;0.30;0.30;;;10.20;99.90;;;;;;5051053;28;20208;-77
2021/11/01 23:35:58;;;;;;;0.85;0.85;;;10.20;99.90;;;;;;5049926;28;20162;-77
2021/11/01 23:38:25;;;;;;;0.35;0.35;;;10.20;99.90;;;;;;5049759;28;20173;-77
2021/11/01 23:40:52;;;;;;;0.28;0.28;;;10.10;99.90;;;;;;5049708;28;20177;-77
2021/11/01 23:43:18;;;;;;;2.13;2.03;;;10.10;99.90;;;;;;5050808;28;20250;-77
2021/11/01 23:45:46;;;;;;;0.85;0.85;;;10.00;99.90;;;;;;5049326;28;20173;-77
2021/11/01 23:48:17;;;;;;;0.63;0.63;;;9.90;99.90;;;;;;5049185;28;20217;-77
2021/11/01 23:50:45;;;;;;;1.00;1.00;;;9.90;99.90;;;;;;5050669;28;20157;-77
2021/11/01 23:55:38;;;;;;;0.77;0.77;;;9.90;99.90;;;;;;5050668;28;20623;-78
2021/11/01 23:58:05;;;;;;;1.55;1.40;;;9.90;99.90;;;;;;5050483;28;20193;-77
